createdAt,value
2019-05-23T00:01:56.660Z,12.60
2019-05-23T00:04:49.436Z,12.60
2019-05-23T00:07:35.271Z,12.60
2019-05-23T00:10:22.131Z,12.60
2019-05-23T00:13:00.623Z,12.60
2019-05-23T00:15:35.416Z,12.40
2019-05-23T00:18:01.683Z,12.40
2019-05-23T00:20:29.340Z,12.30
2019-05-23T00:22:55.349Z,12.30
2019-05-23T00:25:22.675Z,12.30
2019-05-23T00:27:49.012Z,12.30
2019-05-23T00:30:22.601Z,12.20
2019-05-23T00:32:50.520Z,12.30
2019-05-23T00:35:16.941Z,12.30
2019-05-23T00:37:45.254Z,12.30
2019-05-23T00:40:11.879Z,12.30
2019-05-23T00:42:38.511Z,12.30
2019-05-23T00:45:06.544Z,12.00
2019-05-23T00:47:33.275Z,11.90
2019-05-23T00:50:00.017Z,11.80
2019-05-23T00:52:28.968Z,11.70
2019-05-23T00:54:55.163Z,11.60
2019-05-23T00:57:22.213Z,11.70
2019-05-23T00:59:49.271Z,11.80
2019-05-23T01:02:15.704Z,11.80
2019-05-23T01:04:42.066Z,11.70
2019-05-23T01:07:08.919Z,11.80
2019-05-23T01:09:35.731Z,11.80
2019-05-23T01:12:01.889Z,11.80
2019-05-23T01:14:29.347Z,11.70
2019-05-23T01:16:56.628Z,11.70
2019-05-23T01:19:23.470Z,11.70
2019-05-23T01:21:54.861Z,11.70
2019-05-23T01:24:27.443Z,11.60
2019-05-23T01:26:54.112Z,11.60
2019-05-23T01:29:21.663Z,11.60
2019-05-23T01:31:50.411Z,11.50
2019-05-23T01:34:17.359Z,11.50
2019-05-23T01:36:45.246Z,11.40
2019-05-23T01:39:11.975Z,11.30
2019-05-23T01:41:38.924Z,11.30
2019-05-23T01:44:05.571Z,11.20
2019-05-23T01:46:32.940Z,11.10
2019-05-23T01:48:59.219Z,11.20
2019-05-23T01:51:25.912Z,11.00
2019-05-23T01:53:52.058Z,11.00
2019-05-23T01:56:18.612Z,11.10
2019-05-23T01:58:45.065Z,11.20
2019-05-23T02:01:11.831Z,11.10
2019-05-23T02:03:38.587Z,11.00
2019-05-23T02:06:05.071Z,11.10
2019-05-23T02:08:31.441Z,11.10
2019-05-23T02:10:58.094Z,10.90
2019-05-23T02:13:24.289Z,10.90
2019-05-23T02:15:51.636Z,11.00
2019-05-23T02:18:19.689Z,11.00
2019-05-23T02:20:46.569Z,11.00
2019-05-23T02:23:15.827Z,11.00
2019-05-23T02:25:42.106Z,10.90
2019-05-23T02:28:09.475Z,10.80
2019-05-23T02:30:37.137Z,10.80
2019-05-23T02:33:04.309Z,10.90
2019-05-23T02:35:30.851Z,10.90
2019-05-23T02:38:11.667Z,10.90
2019-05-23T02:40:55.666Z,10.80
2019-05-23T02:43:23.735Z,10.80
2019-05-23T02:45:52.070Z,10.80
2019-05-23T02:48:35.256Z,10.70
2019-05-23T02:51:21.352Z,10.70
2019-05-23T02:53:49.302Z,10.70
2019-05-23T02:56:17.404Z,10.70
2019-05-23T02:59:02.343Z,10.70
2019-05-23T03:01:35.440Z,10.70
2019-05-23T03:04:02.979Z,10.60
2019-05-23T03:06:31.639Z,10.60
2019-05-23T03:08:59.105Z,10.50
2019-05-23T03:11:29.027Z,10.50
2019-05-23T03:13:59.001Z,10.40
2019-05-23T03:16:25.592Z,10.40
2019-05-23T03:18:55.230Z,10.40
2019-05-23T03:21:21.350Z,10.40
2019-05-23T03:23:48.670Z,10.30
2019-05-23T03:26:26.651Z,10.20
2019-05-23T03:28:53.195Z,10.30
2019-05-23T03:31:33.649Z,10.20
2019-05-23T03:34:00.871Z,10.20
2019-05-23T03:36:27.892Z,10.20
2019-05-23T03:38:54.874Z,10.10
2019-05-23T03:41:21.167Z,10.10
2019-05-23T03:43:47.924Z,10.10
2019-05-23T03:46:15.998Z,10.10
2019-05-23T03:48:44.028Z,10.20
2019-05-23T03:51:11.775Z,10.20
2019-05-23T03:53:39.008Z,10.10
2019-05-23T03:56:07.026Z,10.10
2019-05-23T03:58:33.686Z,10.20
2019-05-23T04:01:01.647Z,10.20
2019-05-23T04:03:28.959Z,10.20
2019-05-23T04:05:55.496Z,10.20
2019-05-23T04:08:22.823Z,10.10
2019-05-23T04:10:51.599Z,10.30
2019-05-23T04:13:17.188Z,10.20
2019-05-23T04:15:43.210Z,10.30
2019-05-23T04:18:09.441Z,10.30
2019-05-23T04:20:35.761Z,10.40
2019-05-23T04:23:02.296Z,10.30
2019-05-23T04:25:28.314Z,10.30
2019-05-23T04:27:55.698Z,10.50
2019-05-23T04:30:21.768Z,10.70
2019-05-23T04:32:48.001Z,10.80
2019-05-23T04:35:14.345Z,10.80
2019-05-23T04:37:40.723Z,10.80
2019-05-23T04:40:08.272Z,10.80
2019-05-23T04:42:34.975Z,10.90
2019-05-23T04:45:01.392Z,10.90
2019-05-23T04:47:27.680Z,11.00
2019-05-23T04:49:53.907Z,11.00
2019-05-23T04:52:22.645Z,11.10
2019-05-23T04:54:49.887Z,11.10
2019-05-23T04:57:17.302Z,11.20
2019-05-23T04:59:43.740Z,11.30
2019-05-23T05:02:24.911Z,11.30
2019-05-23T05:04:40.192Z,11.30
2019-05-23T05:07:06.509Z,11.50
2019-05-23T05:09:33.648Z,11.50
2019-05-23T05:11:59.787Z,11.60
2019-05-23T05:14:26.054Z,11.60
2019-05-23T05:16:52.795Z,11.70
2019-05-23T05:19:18.946Z,11.70
2019-05-23T05:21:44.964Z,11.80
2019-05-23T05:24:10.989Z,12.10
2019-05-23T05:26:37.052Z,12.30
2019-05-23T05:29:03.955Z,12.70
2019-05-23T05:31:29.984Z,13.10
2019-05-23T05:33:56.409Z,13.50
2019-05-23T05:36:22.788Z,13.80
2019-05-23T05:38:49.916Z,14.00
2019-05-23T05:41:16.235Z,14.60
2019-05-23T05:43:42.551Z,14.90
2019-05-23T05:46:08.584Z,15.10
2019-05-23T05:48:35.009Z,15.20
2019-05-23T05:51:01.035Z,15.40
2019-05-23T05:53:27.289Z,16.00
2019-05-23T05:55:53.317Z,16.50
2019-05-23T05:58:19.322Z,16.80
2019-05-23T06:00:48.576Z,17.00
2019-05-23T06:03:15.128Z,17.10
2019-05-23T06:05:52.248Z,17.50
2019-05-23T06:08:20.787Z,17.50
2019-05-23T06:10:48.312Z,17.90
2019-05-23T06:13:14.747Z,17.50
2019-05-23T06:15:41.136Z,17.70
2019-05-23T06:18:07.551Z,18.00
2019-05-23T06:20:34.182Z,18.20
2019-05-23T06:23:00.210Z,18.30
2019-05-23T06:25:26.860Z,18.50
2019-05-23T06:27:55.123Z,18.50
2019-05-23T06:30:24.032Z,18.80
2019-05-23T06:32:50.565Z,18.90
2019-05-23T06:35:16.603Z,18.90
2019-05-23T06:37:42.819Z,18.90
2019-05-23T06:40:09.625Z,18.90
2019-05-23T06:42:35.631Z,18.60
2019-05-23T06:45:04.269Z,18.90
2019-05-23T06:47:31.402Z,18.90
2019-05-23T06:49:57.864Z,19.10
2019-05-23T06:52:23.933Z,19.50
2019-05-23T06:54:50.023Z,19.80
2019-05-23T06:57:16.433Z,20.10
2019-05-23T06:59:42.505Z,20.40
2019-05-23T07:02:08.528Z,20.50
2019-05-23T07:04:34.822Z,20.60
2019-05-23T07:07:01.257Z,20.50
2019-05-23T07:09:27.635Z,20.50
2019-05-23T07:11:55.763Z,20.60
2019-05-23T07:14:21.798Z,20.90
2019-05-23T07:16:50.368Z,20.90
2019-05-23T07:19:16.919Z,21.30
2019-05-23T07:21:43.629Z,21.50
2019-05-23T07:24:09.951Z,21.10
2019-05-23T07:26:36.376Z,21.50
2019-05-23T07:29:04.208Z,21.40
2019-05-23T07:31:31.498Z,21.30
2019-05-23T07:34:02.351Z,21.80
2019-05-23T07:36:27.036Z,21.80
2019-05-23T07:38:53.676Z,21.90
2019-05-23T07:41:20.133Z,22.30
2019-05-23T07:43:46.605Z,22.10
2019-05-23T07:46:12.951Z,22.30
2019-05-23T07:48:39.326Z,22.10
2019-05-23T07:51:05.544Z,22.00
2019-05-23T07:53:33.483Z,21.90
2019-05-23T07:56:03.439Z,22.40
2019-05-23T07:58:29.462Z,22.20
2019-05-23T08:01:06.626Z,23.20
2019-05-23T08:03:33.629Z,23.10
2019-05-23T08:06:01.093Z,23.50
2019-05-23T08:08:27.673Z,22.90
2019-05-23T08:10:53.695Z,22.70
2019-05-23T08:13:19.934Z,23.00
2019-05-23T08:15:46.617Z,22.80
2019-05-23T08:18:13.335Z,23.10
2019-05-23T08:20:39.667Z,23.20
2019-05-23T08:23:06.712Z,23.20
2019-05-23T08:25:32.746Z,23.10
2019-05-23T08:27:58.851Z,22.80
2019-05-23T08:30:25.957Z,23.80
2019-05-23T08:32:52.091Z,24.10
2019-05-23T08:35:20.406Z,23.90
2019-05-23T08:37:46.644Z,23.80
2019-05-23T08:40:14.786Z,24.00
2019-05-23T08:42:40.837Z,23.30
2019-05-23T08:45:07.363Z,23.30
2019-05-23T08:47:35.593Z,24.40
2019-05-23T08:50:03.677Z,24.30
2019-05-23T08:52:29.760Z,24.40
2019-05-23T08:54:57.811Z,23.70
2019-05-23T08:57:25.916Z,23.20
2019-05-23T08:59:53.942Z,23.80
2019-05-23T09:02:21.308Z,24.00
2019-05-23T09:05:03.439Z,24.00
2019-05-23T09:07:16.975Z,23.70
2019-05-23T09:09:43.356Z,23.90
2019-05-23T09:12:10.260Z,23.90
2019-05-23T09:14:36.794Z,23.80
2019-05-23T09:17:03.842Z,24.10
2019-05-23T09:19:30.204Z,24.00
2019-05-23T09:21:58.068Z,24.90
2019-05-23T09:24:24.636Z,24.90
2019-05-23T09:26:51.503Z,24.70
2019-05-23T09:29:17.786Z,25.00
2019-05-23T09:31:44.125Z,24.40
2019-05-23T09:34:10.799Z,24.10
2019-05-23T09:36:36.944Z,24.20
2019-05-23T09:39:05.723Z,24.70
2019-05-23T09:41:31.880Z,24.40
2019-05-23T09:43:58.158Z,24.00
2019-05-23T09:46:25.409Z,24.50
2019-05-23T09:48:51.891Z,24.80
2019-05-23T09:51:18.358Z,25.20
2019-05-23T09:53:47.416Z,24.70
2019-05-23T09:56:14.141Z,24.50
2019-05-23T09:58:40.653Z,24.80
2019-05-23T10:01:07.026Z,25.20
2019-05-23T10:03:33.332Z,25.60
2019-05-23T10:05:59.684Z,25.90
2019-05-23T10:08:26.147Z,25.70
2019-05-23T10:10:52.307Z,26.00
2019-05-23T10:13:18.660Z,25.40
2019-05-23T10:15:50.578Z,25.00
2019-05-23T10:18:21.043Z,25.30
2019-05-23T10:20:47.300Z,25.10
2019-05-23T10:23:13.936Z,25.40
2019-05-23T10:25:40.162Z,24.80
2019-05-23T10:28:06.626Z,24.70
2019-05-23T10:30:32.930Z,24.20
2019-05-23T10:32:59.162Z,24.20
2019-05-23T10:35:26.187Z,24.30
2019-05-23T10:37:52.347Z,24.50
2019-05-23T10:40:19.840Z,24.70
2019-05-23T10:42:46.107Z,24.40
2019-05-23T10:45:12.585Z,24.20
2019-05-23T10:47:38.808Z,24.50
2019-05-23T10:50:08.445Z,23.90
2019-05-23T10:52:34.916Z,24.20
2019-05-23T10:55:01.187Z,24.40
2019-05-23T10:57:27.955Z,24.30
2019-05-23T10:59:54.149Z,25.10
2019-05-23T11:02:20.504Z,25.10
2019-05-23T11:04:46.665Z,24.50
2019-05-23T11:07:13.630Z,24.80
2019-05-23T11:09:42.460Z,24.50
2019-05-23T11:12:09.661Z,24.90
2019-05-23T11:14:36.026Z,24.90
2019-05-23T11:17:03.089Z,24.80
2019-05-23T11:19:29.410Z,24.10
2019-05-23T11:21:56.173Z,24.30
2019-05-23T11:24:23.561Z,24.00
2019-05-23T11:26:49.904Z,24.00
2019-05-23T11:29:16.164Z,24.00
2019-05-23T11:31:42.715Z,24.20
2019-05-23T11:34:09.187Z,24.70
2019-05-23T11:36:36.831Z,24.60
2019-05-23T11:39:06.455Z,24.10
2019-05-23T11:41:33.021Z,24.60
2019-05-23T11:43:59.491Z,24.70
2019-05-23T11:46:27.571Z,24.20
2019-05-23T11:48:54.528Z,24.00
2019-05-23T11:51:25.164Z,23.90
2019-05-23T11:54:06.001Z,24.00
2019-05-23T11:56:18.544Z,24.20
2019-05-23T11:58:44.983Z,24.40
2019-05-23T12:01:21.480Z,24.20
2019-05-23T12:03:49.914Z,24.20
2019-05-23T12:06:16.681Z,24.20
2019-05-23T12:08:43.136Z,24.70
2019-05-23T12:11:09.699Z,24.40
2019-05-23T12:13:35.983Z,24.50
2019-05-23T12:16:03.322Z,24.80
2019-05-23T12:18:29.473Z,24.40
2019-05-23T12:20:59.444Z,24.20
2019-05-23T12:23:24.041Z,24.60
2019-05-23T12:25:50.403Z,24.30
2019-05-23T12:28:19.498Z,24.50
2019-05-23T12:30:45.879Z,24.20
2019-05-23T12:33:12.026Z,24.40
2019-05-23T12:35:39.252Z,24.60
2019-05-23T12:38:06.104Z,24.50
2019-05-23T12:40:32.563Z,24.20
2019-05-23T12:42:58.720Z,24.50
2019-05-23T12:45:24.998Z,24.40
2019-05-23T12:47:55.745Z,24.20
2019-05-23T12:50:26.596Z,24.60
2019-05-23T12:52:52.786Z,25.10
2019-05-23T12:55:19.024Z,24.90
2019-05-23T12:57:45.180Z,25.50
2019-05-23T13:00:16.132Z,24.90
2019-05-23T13:02:42.821Z,25.20
2019-05-23T13:05:09.686Z,25.10
2019-05-23T13:07:36.920Z,24.40
2019-05-23T13:10:05.259Z,25.00
2019-05-23T13:12:31.492Z,24.80
2019-05-23T13:14:58.845Z,25.20
2019-05-23T13:17:25.461Z,25.30
2019-05-23T13:19:51.607Z,25.00
2019-05-23T13:22:17.876Z,24.50
2019-05-23T13:24:52.499Z,24.50
2019-05-23T13:27:13.223Z,24.50
2019-05-23T13:29:41.392Z,24.70
2019-05-23T13:32:09.273Z,25.00
2019-05-23T13:34:35.600Z,24.30
2019-05-23T13:37:02.794Z,24.80
2019-05-23T13:39:29.239Z,24.50
2019-05-23T13:41:55.409Z,24.70
2019-05-23T13:44:33.965Z,24.80
2019-05-23T13:46:50.133Z,24.40
2019-05-23T13:49:17.039Z,23.90
2019-05-23T13:51:43.711Z,24.40
2019-05-23T13:54:10.158Z,24.60
2019-05-23T13:56:36.494Z,24.40
2019-05-23T13:59:03.012Z,24.90
2019-05-23T14:01:29.417Z,24.70
2019-05-23T14:03:56.071Z,24.60
2019-05-23T14:06:22.428Z,24.60
2019-05-23T14:08:48.796Z,24.50
2019-05-23T14:11:15.100Z,24.50
2019-05-23T14:13:42.584Z,24.50
2019-05-23T14:16:09.169Z,24.70
2019-05-23T14:18:38.204Z,24.60
2019-05-23T14:21:04.968Z,24.60
2019-05-23T14:23:32.627Z,24.20
2019-05-23T14:26:00.499Z,24.50
2019-05-23T14:28:28.875Z,24.50
2019-05-23T14:31:03.571Z,24.70
2019-05-23T14:33:34.585Z,24.40
2019-05-23T14:36:15.087Z,24.60
2019-05-23T14:38:41.762Z,24.90
2019-05-23T14:41:08.809Z,24.60
2019-05-23T14:43:36.122Z,24.40
2019-05-23T14:46:07.820Z,24.40
2019-05-23T14:48:38.418Z,24.50
2019-05-23T14:51:09.251Z,24.50
2019-05-23T14:53:38.088Z,24.60
2019-05-23T14:56:05.760Z,24.40
2019-05-23T14:58:32.242Z,24.30
2019-05-23T15:00:59.307Z,24.60
2019-05-23T15:03:25.997Z,25.00
2019-05-23T15:05:53.560Z,24.90
2019-05-23T15:08:20.678Z,25.00
2019-05-23T15:10:46.940Z,25.10
2019-05-23T15:13:13.229Z,24.80
2019-05-23T15:15:39.374Z,24.60
2019-05-23T15:18:06.132Z,24.30
2019-05-23T15:20:32.475Z,24.10
2019-05-23T15:23:00.157Z,24.10
2019-05-23T15:25:26.674Z,24.20
2019-05-23T15:27:53.045Z,24.00
2019-05-23T15:30:19.517Z,24.00
2019-05-23T15:32:45.671Z,24.20
2019-05-23T15:35:12.565Z,24.20
2019-05-23T15:37:38.726Z,24.20
2019-05-23T15:40:05.491Z,24.40
2019-05-23T15:42:31.843Z,24.20
2019-05-23T15:44:58.309Z,23.80
2019-05-23T15:47:26.592Z,23.90
2019-05-23T15:52:47.107Z,24.20
2019-05-23T15:55:16.006Z,24.40
2019-05-23T15:57:44.311Z,24.20
2019-05-23T16:00:29.770Z,24.20
2019-05-23T16:03:07.675Z,24.30
2019-05-23T16:05:34.289Z,24.40
2019-05-23T16:08:00.732Z,24.10
2019-05-23T16:10:28.007Z,24.10
2019-05-23T16:12:54.206Z,24.10
2019-05-23T16:15:20.509Z,24.00
2019-05-23T16:17:46.892Z,24.10
2019-05-23T16:20:13.467Z,24.30
2019-05-23T16:22:39.621Z,24.10
2019-05-23T16:25:06.185Z,24.40
2019-05-23T16:27:32.587Z,24.30
2019-05-23T16:30:00.432Z,24.40
2019-05-23T16:32:27.012Z,24.30
2019-05-23T16:34:53.179Z,24.00
2019-05-23T16:37:19.915Z,24.20
2019-05-23T16:39:48.623Z,24.10
2019-05-23T16:42:15.094Z,24.10
2019-05-23T16:44:41.618Z,24.10
2019-05-23T16:47:07.996Z,24.00
2019-05-23T16:49:34.161Z,24.00
2019-05-23T16:52:00.621Z,23.70
2019-05-23T16:54:28.696Z,23.80
2019-05-23T16:57:02.981Z,23.90
2019-05-23T16:59:31.087Z,23.70
2019-05-23T17:02:06.633Z,23.60
2019-05-23T17:04:41.259Z,23.60
2019-05-23T17:07:12.610Z,23.40
2019-05-23T17:09:44.253Z,23.40
2019-05-23T17:12:15.189Z,23.40
2019-05-23T17:14:47.035Z,23.30
2019-05-23T17:17:42.908Z,23.30
2019-05-23T17:19:51.090Z,23.20
2019-05-23T17:22:36.152Z,23.20
2019-05-23T17:25:10.015Z,23.00
2019-05-23T17:27:44.020Z,23.10
2019-05-23T17:30:12.800Z,23.00
2019-05-23T17:32:39.153Z,22.90
2019-05-23T17:35:05.885Z,22.80
2019-05-23T17:37:32.735Z,22.60
2019-05-23T17:39:59.097Z,22.40
2019-05-23T17:42:25.490Z,22.50
2019-05-23T17:44:51.647Z,22.60
2019-05-23T17:47:18.086Z,22.50
2019-05-23T17:49:45.351Z,22.50
2019-05-23T17:52:12.002Z,22.50
2019-05-23T17:54:38.766Z,22.50
2019-05-23T17:57:05.412Z,22.50
2019-05-23T17:59:31.631Z,22.30
2019-05-23T18:01:57.976Z,22.20
2019-05-23T18:04:24.147Z,22.20
2019-05-23T18:06:50.952Z,22.10
2019-05-23T18:09:17.814Z,22.10
2019-05-23T18:11:44.428Z,22.00
2019-05-23T18:14:11.616Z,22.00
2019-05-23T18:16:37.775Z,22.00
2019-05-23T18:19:05.080Z,21.90
2019-05-23T18:21:32.135Z,22.00
2019-05-23T18:23:59.215Z,21.90
2019-05-23T18:26:25.884Z,22.00
2019-05-23T18:28:52.964Z,21.80
2019-05-23T18:31:21.150Z,21.80
2019-05-23T18:33:47.922Z,21.70
2019-05-23T18:36:14.802Z,21.60
2019-05-23T18:38:42.349Z,21.50
2019-05-23T18:41:09.556Z,21.40
2019-05-23T18:43:37.471Z,21.20
2019-05-23T18:46:08.612Z,21.00
2019-05-23T18:48:35.488Z,21.00
2019-05-23T18:51:02.345Z,20.90
2019-05-23T18:53:29.111Z,20.80
2019-05-23T18:55:55.279Z,20.70
2019-05-23T18:58:21.651Z,20.60
2019-05-23T19:01:01.533Z,20.60
2019-05-23T19:03:28.940Z,20.50
2019-05-23T19:05:55.093Z,20.40
2019-05-23T19:08:22.573Z,20.30
2019-05-23T19:10:48.923Z,20.30
2019-05-23T19:13:15.089Z,20.20
2019-05-23T19:15:41.652Z,20.10
2019-05-23T19:18:08.116Z,20.10
2019-05-23T19:20:34.907Z,20.00
2019-05-23T19:23:01.464Z,20.00
2019-05-23T19:25:27.760Z,19.90
2019-05-23T19:27:54.211Z,19.80
2019-05-23T19:30:21.025Z,19.80
2019-05-23T19:32:47.420Z,19.70
2019-05-23T19:35:14.634Z,19.60
2019-05-23T19:37:40.877Z,19.50
2019-05-23T19:40:08.758Z,19.40
2019-05-23T19:42:35.340Z,19.40
2019-05-23T19:45:03.517Z,19.40
2019-05-23T19:47:29.959Z,19.40
2019-05-23T19:49:56.122Z,19.30
2019-05-23T19:52:22.570Z,19.20
2019-05-23T19:54:48.955Z,19.20
2019-05-23T19:57:15.720Z,19.30
2019-05-23T19:59:42.760Z,19.00
2019-05-23T20:02:11.667Z,18.80
2019-05-23T20:04:42.926Z,18.70
2019-05-23T20:07:10.137Z,18.50
2019-05-23T20:09:36.788Z,18.60
2019-05-23T20:12:03.847Z,18.60
2019-05-23T20:14:30.016Z,18.70
2019-05-23T20:16:56.584Z,18.60
2019-05-23T20:19:23.029Z,18.30
2019-05-23T20:21:49.442Z,18.50
2019-05-23T20:24:15.773Z,18.40
2019-05-23T20:26:42.200Z,18.40
2019-05-23T20:29:08.555Z,18.40
2019-05-23T20:31:35.280Z,18.20
2019-05-23T20:34:01.962Z,18.10
2019-05-23T20:36:28.267Z,18.20
2019-05-23T20:38:54.447Z,18.30
2019-05-23T20:41:21.310Z,18.20
2019-05-23T20:43:47.559Z,18.10
2019-05-23T20:46:13.862Z,18.10
2019-05-23T20:48:40.037Z,18.10
2019-05-23T20:51:06.238Z,18.00
2019-05-23T20:53:32.585Z,18.10
2019-05-23T20:55:58.747Z,18.10
2019-05-23T20:58:24.898Z,18.00
2019-05-23T21:00:55.815Z,18.10
2019-05-23T21:03:23.664Z,18.00
2019-05-23T21:05:50.165Z,17.90
2019-05-23T21:08:16.522Z,18.00
2019-05-23T21:10:45.098Z,17.80
2019-05-23T21:13:11.244Z,17.90
2019-05-23T21:15:40.535Z,17.80
2019-05-23T21:18:05.971Z,17.80
2019-05-23T21:20:32.237Z,17.60
2019-05-23T21:22:58.601Z,17.60
2019-05-23T21:25:25.652Z,17.60
2019-05-23T21:27:51.899Z,17.80
2019-05-23T21:30:18.184Z,17.70
2019-05-23T21:32:44.537Z,17.60
2019-05-23T21:35:10.915Z,17.60
2019-05-23T21:37:37.061Z,17.60
2019-05-23T21:40:06.325Z,17.50
2019-05-23T21:42:46.807Z,17.60
2019-05-23T21:45:00.535Z,17.50
2019-05-23T21:47:26.687Z,17.40
2019-05-23T21:49:52.969Z,17.40
2019-05-23T21:52:19.344Z,17.30
2019-05-23T21:54:45.746Z,17.30
2019-05-23T21:57:12.236Z,17.00
2019-05-23T21:59:38.376Z,17.00
2019-05-23T22:02:09.721Z,16.90
2019-05-23T22:04:38.080Z,16.80
2019-05-23T22:07:04.390Z,16.70
2019-05-23T22:09:31.510Z,16.70
2019-05-23T22:11:57.879Z,16.80
2019-05-23T22:14:24.094Z,16.70
2019-05-23T22:16:50.740Z,16.60
2019-05-23T22:19:18.909Z,16.60
2019-05-23T22:21:45.078Z,16.50
2019-05-23T22:24:12.234Z,16.40
2019-05-23T22:26:38.495Z,16.50
2019-05-23T22:29:06.061Z,16.50
2019-05-23T22:31:32.231Z,16.40
2019-05-23T22:34:03.173Z,16.40
2019-05-23T22:36:29.341Z,16.30
2019-05-23T22:38:55.600Z,16.30
2019-05-23T22:41:21.746Z,16.30
2019-05-23T22:43:47.906Z,16.40
2019-05-23T22:46:14.700Z,16.40
2019-05-23T22:48:40.876Z,16.30
2019-05-23T22:51:07.144Z,16.30
2019-05-23T22:53:33.307Z,16.20
2019-05-23T22:55:59.482Z,16.30
2019-05-23T22:58:25.635Z,16.10
2019-05-23T23:00:52.191Z,16.00
2019-05-23T23:03:18.369Z,15.90
2019-05-23T23:05:44.779Z,15.90
2019-05-23T23:08:11.593Z,15.90
2019-05-23T23:10:38.344Z,15.80
2019-05-23T23:13:04.815Z,15.90
2019-05-23T23:15:32.057Z,15.90
2019-05-23T23:17:58.337Z,15.90
2019-05-23T23:20:24.768Z,16.00
2019-05-23T23:22:50.914Z,16.00
2019-05-23T23:25:17.072Z,15.90
2019-05-23T23:27:43.286Z,16.00
2019-05-23T23:30:11.571Z,16.00
2019-05-23T23:32:38.059Z,15.90
2019-05-23T23:35:05.409Z,16.00
2019-05-23T23:37:31.558Z,15.70
2019-05-23T23:39:57.772Z,15.60
2019-05-23T23:42:24.004Z,15.50
2019-05-23T23:44:50.434Z,15.50
2019-05-23T23:47:35.140Z,15.50
2019-05-23T23:50:21.565Z,15.50
2019-05-23T23:53:06.304Z,15.40
2019-05-23T23:55:51.196Z,15.40
2019-05-23T23:58:17.449Z,15.40
